sensor_id;sensor_type;location;lat;lon;timestamp;P1;durP1;ratioP1;P2;durP2;ratioP2
28862;SDS011;15994;51.796;13.006;2023-05-27T00:00:34;13.90;;;4.53;;
28862;SDS011;15994;51.796;13.006;2023-05-27T00:03:00;13.68;;;4.85;;
28862;SDS011;15994;51.796;13.006;2023-05-27T00:05:27;16.92;;;4.60;;
28862;SDS011;15994;51.796;13.006;2023-05-27T00:07:54;14.68;;;4.75;;
28862;SDS011;15994;51.796;13.006;2023-05-27T00:10:21;18.35;;;4.97;;
28862;SDS011;15994;51.796;13.006;2023-05-27T00:12:47;19.20;;;5.35;;
28862;SDS011;15994;51.796;13.006;2023-05-27T00:15:14;55.22;;;7.70;;
28862;SDS011;15994;51.796;13.006;2023-05-27T00:17:42;18.02;;;5.25;;
28862;SDS011;15994;51.796;13.006;2023-05-27T00:20:09;17.60;;;4.80;;
28862;SDS011;15994;51.796;13.006;2023-05-27T00:22:37;15.25;;;4.97;;
28862;SDS011;15994;51.796;13.006;2023-05-27T00:25:04;14.30;;;5.05;;
28862;SDS011;15994;51.796;13.006;2023-05-27T00:27:31;23.50;;;5.32;;
28862;SDS011;15994;51.796;13.006;2023-05-27T00:29:58;16.55;;;5.60;;
28862;SDS011;15994;51.796;13.006;2023-05-27T00:32:25;16.67;;;5.32;;
28862;SDS011;15994;51.796;13.006;2023-05-27T00:34:51;16.35;;;5.55;;
28862;SDS011;15994;51.796;13.006;2023-05-27T00:37:18;18.48;;;5.55;;
28862;SDS011;15994;51.796;13.006;2023-05-27T00:39:44;19.20;;;5.32;;
28862;SDS011;15994;51.796;13.006;2023-05-27T00:42:11;17.40;;;4.88;;
28862;SDS011;15994;51.796;13.006;2023-05-27T00:44:38;19.00;;;5.35;;
28862;SDS011;15994;51.796;13.006;2023-05-27T00:47:05;17.30;;;5.30;;
28862;SDS011;15994;51.796;13.006;2023-05-27T00:49:32;13.02;;;4.50;;
28862;SDS011;15994;51.796;13.006;2023-05-27T00:51:59;18.63;;;5.13;;
28862;SDS011;15994;51.796;13.006;2023-05-27T00:54:26;22.42;;;5.40;;
28862;SDS011;15994;51.796;13.006;2023-05-27T00:56:52;20.95;;;5.13;;
28862;SDS011;15994;51.796;13.006;2023-05-27T00:59:19;17.63;;;4.95;;
28862;SDS011;15994;51.796;13.006;2023-05-27T01:01:46;18.67;;;4.60;;
28862;SDS011;15994;51.796;13.006;2023-05-27T01:04:14;14.40;;;4.80;;
28862;SDS011;15994;51.796;13.006;2023-05-27T01:09:40;14.02;;;4.68;;
28862;SDS011;15994;51.796;13.006;2023-05-27T01:12:25;17.02;;;5.10;;
28862;SDS011;15994;51.796;13.006;2023-05-27T01:15:12;17.05;;;5.15;;
28862;SDS011;15994;51.796;13.006;2023-05-27T01:17:39;14.55;;;4.80;;
28862;SDS011;15994;51.796;13.006;2023-05-27T01:20:09;20.38;;;5.80;;
28862;SDS011;15994;51.796;13.006;2023-05-27T01:22:36;16.40;;;5.28;;
28862;SDS011;15994;51.796;13.006;2023-05-27T01:25:06;15.63;;;4.88;;
28862;SDS011;15994;51.796;13.006;2023-05-27T01:27:34;12.45;;;4.60;;
28862;SDS011;15994;51.796;13.006;2023-05-27T01:30:00;14.07;;;4.97;;
28862;SDS011;15994;51.796;13.006;2023-05-27T01:32:30;16.25;;;5.07;;
28862;SDS011;15994;51.796;13.006;2023-05-27T01:37:29;19.30;;;6.45;;
28862;SDS011;15994;51.796;13.006;2023-05-27T01:40:02;16.20;;;5.60;;
28862;SDS011;15994;51.796;13.006;2023-05-27T01:42:31;15.52;;;5.78;;
28862;SDS011;15994;51.796;13.006;2023-05-27T01:45:00;13.52;;;4.80;;
28862;SDS011;15994;51.796;13.006;2023-05-27T01:47:31;15.95;;;5.25;;
28862;SDS011;15994;51.796;13.006;2023-05-27T01:49:57;16.63;;;5.22;;
28862;SDS011;15994;51.796;13.006;2023-05-27T01:52:24;14.73;;;4.93;;
28862;SDS011;15994;51.796;13.006;2023-05-27T01:54:51;14.50;;;5.20;;
28862;SDS011;15994;51.796;13.006;2023-05-27T01:57:18;12.10;;;4.57;;
28862;SDS011;15994;51.796;13.006;2023-05-27T01:59:46;14.65;;;4.75;;
28862;SDS011;15994;51.796;13.006;2023-05-27T02:02:12;14.32;;;5.00;;
28862;SDS011;15994;51.796;13.006;2023-05-27T02:04:39;12.70;;;4.93;;
28862;SDS011;15994;51.796;13.006;2023-05-27T02:07:05;14.00;;;4.90;;
28862;SDS011;15994;51.796;13.006;2023-05-27T02:09:32;20.40;;;5.65;;
28862;SDS011;15994;51.796;13.006;2023-05-27T02:11:58;12.82;;;5.03;;
28862;SDS011;15994;51.796;13.006;2023-05-27T02:14:25;14.27;;;5.15;;
28862;SDS011;15994;51.796;13.006;2023-05-27T02:16:52;14.57;;;4.90;;
28862;SDS011;15994;51.796;13.006;2023-05-27T02:19:19;16.40;;;5.35;;
28862;SDS011;15994;51.796;13.006;2023-05-27T02:21:47;13.93;;;5.47;;
28862;SDS011;15994;51.796;13.006;2023-05-27T02:24:13;18.58;;;5.82;;
28862;SDS011;15994;51.796;13.006;2023-05-27T02:26:40;12.45;;;4.85;;
28862;SDS011;15994;51.796;13.006;2023-05-27T02:29:06;16.42;;;5.25;;
28862;SDS011;15994;51.796;13.006;2023-05-27T02:31:33;15.93;;;5.85;;
28862;SDS011;15994;51.796;13.006;2023-05-27T02:33:59;12.98;;;4.78;;
28862;SDS011;15994;51.796;13.006;2023-05-27T02:36:26;12.35;;;4.65;;
28862;SDS011;15994;51.796;13.006;2023-05-27T02:38:52;18.60;;;5.03;;
28862;SDS011;15994;51.796;13.006;2023-05-27T02:41:19;17.92;;;5.43;;
28862;SDS011;15994;51.796;13.006;2023-05-27T02:43:46;17.33;;;5.85;;
28862;SDS011;15994;51.796;13.006;2023-05-27T02:46:12;17.48;;;5.45;;
28862;SDS011;15994;51.796;13.006;2023-05-27T02:48:39;17.13;;;5.90;;
28862;SDS011;15994;51.796;13.006;2023-05-27T02:51:05;15.70;;;5.47;;
28862;SDS011;15994;51.796;13.006;2023-05-27T02:53:32;15.60;;;5.75;;
28862;SDS011;15994;51.796;13.006;2023-05-27T02:55:58;17.65;;;5.63;;
28862;SDS011;15994;51.796;13.006;2023-05-27T02:58:25;20.23;;;5.57;;
28862;SDS011;15994;51.796;13.006;2023-05-27T03:00:51;14.90;;;5.30;;
28862;SDS011;15994;51.796;13.006;2023-05-27T03:03:18;14.65;;;5.10;;
28862;SDS011;15994;51.796;13.006;2023-05-27T03:05:44;17.50;;;5.53;;
28862;SDS011;15994;51.796;13.006;2023-05-27T03:08:11;15.63;;;5.30;;
28862;SDS011;15994;51.796;13.006;2023-05-27T03:10:37;16.92;;;5.38;;
28862;SDS011;15994;51.796;13.006;2023-05-27T03:13:04;16.27;;;4.75;;
28862;SDS011;15994;51.796;13.006;2023-05-27T03:15:30;17.27;;;5.78;;
28862;SDS011;15994;51.796;13.006;2023-05-27T03:17:57;18.08;;;5.53;;
28862;SDS011;15994;51.796;13.006;2023-05-27T03:20:24;14.35;;;5.03;;
28862;SDS011;15994;51.796;13.006;2023-05-27T03:22:51;11.93;;;4.82;;
28862;SDS011;15994;51.796;13.006;2023-05-27T03:25:17;17.42;;;5.68;;
28862;SDS011;15994;51.796;13.006;2023-05-27T03:27:44;14.70;;;5.03;;
28862;SDS011;15994;51.796;13.006;2023-05-27T03:30:10;16.58;;;5.53;;
28862;SDS011;15994;51.796;13.006;2023-05-27T03:32:37;16.67;;;5.65;;
28862;SDS011;15994;51.796;13.006;2023-05-27T03:35:04;14.02;;;5.50;;
28862;SDS011;15994;51.796;13.006;2023-05-27T03:37:31;13.43;;;5.25;;
28862;SDS011;15994;51.796;13.006;2023-05-27T03:39:58;13.02;;;5.10;;
28862;SDS011;15994;51.796;13.006;2023-05-27T03:42:24;14.18;;;4.97;;
28862;SDS011;15994;51.796;13.006;2023-05-27T03:44:51;15.27;;;5.10;;
28862;SDS011;15994;51.796;13.006;2023-05-27T03:47:17;12.50;;;4.95;;
28862;SDS011;15994;51.796;13.006;2023-05-27T03:49:46;15.15;;;5.22;;
28862;SDS011;15994;51.796;13.006;2023-05-27T03:52:13;17.88;;;5.70;;
28862;SDS011;15994;51.796;13.006;2023-05-27T03:54:42;17.48;;;5.95;;
28862;SDS011;15994;51.796;13.006;2023-05-27T03:57:08;18.58;;;6.00;;
28862;SDS011;15994;51.796;13.006;2023-05-27T03:59:35;15.95;;;5.70;;
28862;SDS011;15994;51.796;13.006;2023-05-27T04:02:02;13.13;;;5.03;;
28862;SDS011;15994;51.796;13.006;2023-05-27T04:04:29;16.67;;;6.00;;
28862;SDS011;15994;51.796;13.006;2023-05-27T04:06:56;13.38;;;5.47;;
28862;SDS011;15994;51.796;13.006;2023-05-27T04:09:22;14.25;;;5.50;;
28862;SDS011;15994;51.796;13.006;2023-05-27T04:11:49;13.25;;;5.18;;
28862;SDS011;15994;51.796;13.006;2023-05-27T04:14:15;16.63;;;5.38;;
28862;SDS011;15994;51.796;13.006;2023-05-27T04:16:42;14.30;;;5.70;;
28862;SDS011;15994;51.796;13.006;2023-05-27T04:19:09;19.17;;;5.38;;
28862;SDS011;15994;51.796;13.006;2023-05-27T04:21:35;16.02;;;5.72;;
28862;SDS011;15994;51.796;13.006;2023-05-27T04:24:02;18.63;;;5.78;;
28862;SDS011;15994;51.796;13.006;2023-05-27T04:26:29;19.02;;;4.88;;
28862;SDS011;15994;51.796;13.006;2023-05-27T04:28:56;17.73;;;5.03;;
28862;SDS011;15994;51.796;13.006;2023-05-27T04:31:24;15.70;;;5.40;;
28862;SDS011;15994;51.796;13.006;2023-05-27T04:33:53;15.30;;;5.32;;
28862;SDS011;15994;51.796;13.006;2023-05-27T04:36:20;14.93;;;5.43;;
28862;SDS011;15994;51.796;13.006;2023-05-27T04:38:50;17.90;;;5.47;;
28862;SDS011;15994;51.796;13.006;2023-05-27T04:41:17;24.13;;;5.72;;
28862;SDS011;15994;51.796;13.006;2023-05-27T04:43:46;16.42;;;5.10;;
28862;SDS011;15994;51.796;13.006;2023-05-27T04:46:13;16.20;;;5.05;;
28862;SDS011;15994;51.796;13.006;2023-05-27T04:48:40;20.13;;;5.60;;
28862;SDS011;15994;51.796;13.006;2023-05-27T04:51:09;15.82;;;5.32;;
28862;SDS011;15994;51.796;13.006;2023-05-27T04:53:36;17.15;;;5.15;;
28862;SDS011;15994;51.796;13.006;2023-05-27T04:56:02;16.42;;;4.65;;
28862;SDS011;15994;51.796;13.006;2023-05-27T04:58:29;19.17;;;4.95;;
28862;SDS011;15994;51.796;13.006;2023-05-27T05:00:55;15.88;;;5.15;;
28862;SDS011;15994;51.796;13.006;2023-05-27T05:03:22;15.15;;;4.85;;
28862;SDS011;15994;51.796;13.006;2023-05-27T05:06:01;13.25;;;4.60;;
28862;SDS011;15994;51.796;13.006;2023-05-27T05:08:28;13.50;;;5.40;;
28862;SDS011;15994;51.796;13.006;2023-05-27T05:10:55;18.83;;;5.22;;
28862;SDS011;15994;51.796;13.006;2023-05-27T05:13:22;18.50;;;5.38;;
28862;SDS011;15994;51.796;13.006;2023-05-27T05:15:53;17.67;;;5.35;;
28862;SDS011;15994;51.796;13.006;2023-05-27T05:18:20;15.68;;;5.00;;
28862;SDS011;15994;51.796;13.006;2023-05-27T05:20:46;16.92;;;5.05;;
28862;SDS011;15994;51.796;13.006;2023-05-27T05:23:13;17.92;;;4.45;;
28862;SDS011;15994;51.796;13.006;2023-05-27T05:25:40;16.60;;;5.32;;
28862;SDS011;15994;51.796;13.006;2023-05-27T05:28:06;14.88;;;4.88;;
28862;SDS011;15994;51.796;13.006;2023-05-27T05:30:33;17.75;;;5.00;;
28862;SDS011;15994;51.796;13.006;2023-05-27T05:32:59;17.48;;;5.05;;
28862;SDS011;15994;51.796;13.006;2023-05-27T05:35:26;19.77;;;4.95;;
28862;SDS011;15994;51.796;13.006;2023-05-27T05:37:52;14.63;;;4.47;;
28862;SDS011;15994;51.796;13.006;2023-05-27T05:40:19;17.38;;;4.80;;
28862;SDS011;15994;51.796;13.006;2023-05-27T05:42:47;17.50;;;5.75;;
28862;SDS011;15994;51.796;13.006;2023-05-27T05:45:14;16.17;;;4.68;;
28862;SDS011;15994;51.796;13.006;2023-05-27T05:47:40;13.70;;;4.78;;
28862;SDS011;15994;51.796;13.006;2023-05-27T05:50:07;14.00;;;5.00;;
28862;SDS011;15994;51.796;13.006;2023-05-27T05:52:33;13.80;;;4.47;;
28862;SDS011;15994;51.796;13.006;2023-05-27T05:55:00;19.92;;;5.35;;
28862;SDS011;15994;51.796;13.006;2023-05-27T05:57:26;19.17;;;4.93;;
28862;SDS011;15994;51.796;13.006;2023-05-27T05:59:56;16.10;;;5.18;;
28862;SDS011;15994;51.796;13.006;2023-05-27T06:02:23;13.65;;;4.88;;
28862;SDS011;15994;51.796;13.006;2023-05-27T06:04:50;19.02;;;5.47;;
28862;SDS011;15994;51.796;13.006;2023-05-27T06:07:17;14.07;;;5.10;;
28862;SDS011;15994;51.796;13.006;2023-05-27T06:09:44;15.20;;;5.40;;
28862;SDS011;15994;51.796;13.006;2023-05-27T06:12:10;15.93;;;5.10;;
28862;SDS011;15994;51.796;13.006;2023-05-27T06:14:37;15.90;;;4.75;;
28862;SDS011;15994;51.796;13.006;2023-05-27T06:17:03;17.08;;;5.05;;
28862;SDS011;15994;51.796;13.006;2023-05-27T06:19:30;16.55;;;4.95;;
28862;SDS011;15994;51.796;13.006;2023-05-27T06:21:56;16.95;;;4.93;;
28862;SDS011;15994;51.796;13.006;2023-05-27T06:24:23;15.10;;;4.97;;
28862;SDS011;15994;51.796;13.006;2023-05-27T06:26:49;18.95;;;5.40;;
28862;SDS011;15994;51.796;13.006;2023-05-27T06:29:16;14.77;;;4.75;;
28862;SDS011;15994;51.796;13.006;2023-05-27T06:31:43;15.02;;;5.35;;
28862;SDS011;15994;51.796;13.006;2023-05-27T06:34:11;16.13;;;4.78;;
28862;SDS011;15994;51.796;13.006;2023-05-27T06:36:38;13.65;;;5.45;;
28862;SDS011;15994;51.796;13.006;2023-05-27T06:39:04;17.00;;;4.55;;
28862;SDS011;15994;51.796;13.006;2023-05-27T06:41:30;18.00;;;4.80;;
28862;SDS011;15994;51.796;13.006;2023-05-27T06:43:57;19.63;;;4.45;;
28862;SDS011;15994;51.796;13.006;2023-05-27T06:46:23;16.33;;;4.85;;
28862;SDS011;15994;51.796;13.006;2023-05-27T06:48:50;15.70;;;4.85;;
28862;SDS011;15994;51.796;13.006;2023-05-27T06:51:17;15.68;;;4.65;;
28862;SDS011;15994;51.796;13.006;2023-05-27T06:53:44;16.25;;;4.80;;
28862;SDS011;15994;51.796;13.006;2023-05-27T06:56:10;17.92;;;4.25;;
28862;SDS011;15994;51.796;13.006;2023-05-27T06:58:37;13.50;;;4.00;;
28862;SDS011;15994;51.796;13.006;2023-05-27T07:01:04;18.50;;;4.28;;
28862;SDS011;15994;51.796;13.006;2023-05-27T07:03:30;17.92;;;4.55;;
28862;SDS011;15994;51.796;13.006;2023-05-27T07:05:57;15.88;;;4.30;;
28862;SDS011;15994;51.796;13.006;2023-05-27T07:08:23;16.88;;;4.10;;
28862;SDS011;15994;51.796;13.006;2023-05-27T07:10:50;15.93;;;4.05;;
28862;SDS011;15994;51.796;13.006;2023-05-27T07:13:16;14.90;;;4.32;;
28862;SDS011;15994;51.796;13.006;2023-05-27T07:15:43;15.73;;;4.03;;
28862;SDS011;15994;51.796;13.006;2023-05-27T07:18:09;14.95;;;3.67;;
28862;SDS011;15994;51.796;13.006;2023-05-27T07:20:36;16.15;;;3.55;;
28862;SDS011;15994;51.796;13.006;2023-05-27T07:23:03;38.90;;;5.18;;
28862;SDS011;15994;51.796;13.006;2023-05-27T07:25:30;13.18;;;3.45;;
28862;SDS011;15994;51.796;13.006;2023-05-27T07:27:57;14.63;;;3.80;;
28862;SDS011;15994;51.796;13.006;2023-05-27T07:30:23;14.68;;;3.22;;
28862;SDS011;15994;51.796;13.006;2023-05-27T07:32:50;14.48;;;3.53;;
28862;SDS011;15994;51.796;13.006;2023-05-27T07:35:17;14.73;;;3.67;;
28862;SDS011;15994;51.796;13.006;2023-05-27T07:37:44;14.32;;;3.00;;
28862;SDS011;15994;51.796;13.006;2023-05-27T07:40:10;11.98;;;3.15;;
28862;SDS011;15994;51.796;13.006;2023-05-27T07:42:37;13.07;;;3.38;;
28862;SDS011;15994;51.796;13.006;2023-05-27T07:45:03;9.90;;;3.00;;
28862;SDS011;15994;51.796;13.006;2023-05-27T07:47:30;41.05;;;3.80;;
28862;SDS011;15994;51.796;13.006;2023-05-27T07:49:57;7.45;;;2.40;;
28862;SDS011;15994;51.796;13.006;2023-05-27T07:52:23;10.90;;;2.72;;
28862;SDS011;15994;51.796;13.006;2023-05-27T07:54:50;12.38;;;3.20;;
28862;SDS011;15994;51.796;13.006;2023-05-27T07:57:16;10.43;;;2.78;;
28862;SDS011;15994;51.796;13.006;2023-05-27T07:59:43;11.02;;;2.90;;
28862;SDS011;15994;51.796;13.006;2023-05-27T08:02:09;9.52;;;2.80;;
28862;SDS011;15994;51.796;13.006;2023-05-27T08:04:36;9.93;;;3.05;;
28862;SDS011;15994;51.796;13.006;2023-05-27T08:07:03;13.55;;;3.22;;
28862;SDS011;15994;51.796;13.006;2023-05-27T08:09:29;8.10;;;2.85;;
28862;SDS011;15994;51.796;13.006;2023-05-27T08:11:57;17.80;;;3.42;;
28862;SDS011;15994;51.796;13.006;2023-05-27T08:14:24;10.15;;;3.20;;
28862;SDS011;15994;51.796;13.006;2023-05-27T08:16:52;11.95;;;3.13;;
28862;SDS011;15994;51.796;13.006;2023-05-27T08:19:19;14.07;;;3.05;;
28862;SDS011;15994;51.796;13.006;2023-05-27T08:21:46;11.35;;;3.00;;
28862;SDS011;15994;51.796;13.006;2023-05-27T08:24:12;11.27;;;2.75;;
28862;SDS011;15994;51.796;13.006;2023-05-27T08:26:39;9.65;;;2.90;;
28862;SDS011;15994;51.796;13.006;2023-05-27T08:29:06;8.20;;;2.97;;
28862;SDS011;15994;51.796;13.006;2023-05-27T08:31:32;10.52;;;2.65;;
28862;SDS011;15994;51.796;13.006;2023-05-27T08:33:59;12.23;;;2.58;;
28862;SDS011;15994;51.796;13.006;2023-05-27T08:36:25;11.25;;;3.13;;
28862;SDS011;15994;51.796;13.006;2023-05-27T08:38:52;8.02;;;2.40;;
28862;SDS011;15994;51.796;13.006;2023-05-27T08:41:18;11.60;;;2.63;;
28862;SDS011;15994;51.796;13.006;2023-05-27T08:43:46;10.38;;;2.33;;
28862;SDS011;15994;51.796;13.006;2023-05-27T08:46:13;8.45;;;2.15;;
28862;SDS011;15994;51.796;13.006;2023-05-27T08:48:40;8.95;;;2.35;;
28862;SDS011;15994;51.796;13.006;2023-05-27T08:51:07;10.07;;;2.47;;
28862;SDS011;15994;51.796;13.006;2023-05-27T08:53:34;12.88;;;2.58;;
28862;SDS011;15994;51.796;13.006;2023-05-27T08:56:02;8.75;;;2.08;;
28862;SDS011;15994;51.796;13.006;2023-05-27T08:58:31;11.18;;;2.50;;
28862;SDS011;15994;51.796;13.006;2023-05-27T09:00:58;9.40;;;2.35;;
28862;SDS011;15994;51.796;13.006;2023-05-27T09:03:26;8.90;;;2.53;;
28862;SDS011;15994;51.796;13.006;2023-05-27T09:05:52;6.93;;;2.45;;
28862;SDS011;15994;51.796;13.006;2023-05-27T09:08:21;10.18;;;2.65;;
28862;SDS011;15994;51.796;13.006;2023-05-27T09:10:47;8.05;;;2.42;;
28862;SDS011;15994;51.796;13.006;2023-05-27T09:13:24;9.35;;;3.00;;
28862;SDS011;15994;51.796;13.006;2023-05-27T09:16:02;8.82;;;2.63;;
28862;SDS011;15994;51.796;13.006;2023-05-27T09:18:31;10.30;;;3.40;;
28862;SDS011;15994;51.796;13.006;2023-05-27T09:20:59;10.45;;;3.28;;
28862;SDS011;15994;51.796;13.006;2023-05-27T09:23:25;7.97;;;2.30;;
28862;SDS011;15994;51.796;13.006;2023-05-27T09:25:52;8.57;;;2.53;;
28862;SDS011;15994;51.796;13.006;2023-05-27T09:28:20;8.93;;;2.90;;
28862;SDS011;15994;51.796;13.006;2023-05-27T09:30:50;11.43;;;2.85;;
28862;SDS011;15994;51.796;13.006;2023-05-27T09:33:23;8.55;;;2.35;;
28862;SDS011;15994;51.796;13.006;2023-05-27T09:35:50;10.77;;;2.55;;
28862;SDS011;15994;51.796;13.006;2023-05-27T09:38:16;9.02;;;2.65;;
28862;SDS011;15994;51.796;13.006;2023-05-27T09:40:45;9.55;;;2.63;;
28862;SDS011;15994;51.796;13.006;2023-05-27T09:43:13;5.78;;;2.33;;
28862;SDS011;15994;51.796;13.006;2023-05-27T09:45:41;10.45;;;2.72;;
28862;SDS011;15994;51.796;13.006;2023-05-27T09:48:09;9.60;;;2.25;;
28862;SDS011;15994;51.796;13.006;2023-05-27T09:50:37;9.93;;;2.78;;
28862;SDS011;15994;51.796;13.006;2023-05-27T09:53:05;6.68;;;2.08;;
28862;SDS011;15994;51.796;13.006;2023-05-27T09:55:33;7.85;;;2.38;;
28862;SDS011;15994;51.796;13.006;2023-05-27T09:58:00;9.38;;;2.40;;
28862;SDS011;15994;51.796;13.006;2023-05-27T10:00:27;8.43;;;2.80;;
28862;SDS011;15994;51.796;13.006;2023-05-27T10:02:56;6.47;;;2.00;;
28862;SDS011;15994;51.796;13.006;2023-05-27T10:05:25;5.22;;;2.17;;
28862;SDS011;15994;51.796;13.006;2023-05-27T10:07:53;7.95;;;2.42;;
28862;SDS011;15994;51.796;13.006;2023-05-27T10:10:19;7.50;;;2.20;;
28862;SDS011;15994;51.796;13.006;2023-05-27T10:12:47;6.60;;;2.22;;
28862;SDS011;15994;51.796;13.006;2023-05-27T10:18:05;8.95;;;2.38;;
28862;SDS011;15994;51.796;13.006;2023-05-27T10:20:38;7.72;;;2.38;;
28862;SDS011;15994;51.796;13.006;2023-05-27T10:23:13;6.33;;;2.00;;
28862;SDS011;15994;51.796;13.006;2023-05-27T10:25:51;6.60;;;1.80;;
28862;SDS011;15994;51.796;13.006;2023-05-27T10:28:25;8.75;;;2.17;;
28862;SDS011;15994;51.796;13.006;2023-05-27T10:30:52;5.65;;;1.98;;
28862;SDS011;15994;51.796;13.006;2023-05-27T10:33:29;5.03;;;1.67;;
28862;SDS011;15994;51.796;13.006;2023-05-27T10:35:56;5.47;;;1.63;;
28862;SDS011;15994;51.796;13.006;2023-05-27T10:38:29;4.03;;;1.80;;
28862;SDS011;15994;51.796;13.006;2023-05-27T10:40:59;6.47;;;1.90;;
28862;SDS011;15994;51.796;13.006;2023-05-27T10:43:28;6.10;;;1.67;;
28862;SDS011;15994;51.796;13.006;2023-05-27T10:46:08;6.05;;;1.73;;
28862;SDS011;15994;51.796;13.006;2023-05-27T10:48:37;4.68;;;1.67;;
28862;SDS011;15994;51.796;13.006;2023-05-27T10:51:04;4.55;;;1.60;;
28862;SDS011;15994;51.796;13.006;2023-05-27T10:53:31;6.18;;;1.80;;
28862;SDS011;15994;51.796;13.006;2023-05-27T10:56:00;6.55;;;1.90;;
28862;SDS011;15994;51.796;13.006;2023-05-27T10:58:27;7.97;;;1.75;;
28862;SDS011;15994;51.796;13.006;2023-05-27T11:00:55;5.20;;;1.80;;
28862;SDS011;15994;51.796;13.006;2023-05-27T11:03:24;6.43;;;1.55;;
28862;SDS011;15994;51.796;13.006;2023-05-27T11:06:02;6.05;;;1.48;;
28862;SDS011;15994;51.796;13.006;2023-05-27T11:08:30;3.63;;;1.50;;
28862;SDS011;15994;51.796;13.006;2023-05-27T11:11:00;5.15;;;1.52;;
28862;SDS011;15994;51.796;13.006;2023-05-27T11:13:35;5.00;;;1.60;;
28862;SDS011;15994;51.796;13.006;2023-05-27T11:16:07;4.20;;;1.50;;
28862;SDS011;15994;51.796;13.006;2023-05-27T11:18:34;4.93;;;1.88;;
28862;SDS011;15994;51.796;13.006;2023-05-27T11:21:06;4.53;;;1.60;;
28862;SDS011;15994;51.796;13.006;2023-05-27T11:24:13;5.30;;;1.70;;
28862;SDS011;15994;51.796;13.006;2023-05-27T11:26:26;4.78;;;1.58;;
28862;SDS011;15994;51.796;13.006;2023-05-27T11:28:56;6.95;;;1.63;;
28862;SDS011;15994;51.796;13.006;2023-05-27T11:31:27;6.03;;;1.45;;
28862;SDS011;15994;51.796;13.006;2023-05-27T11:33:54;5.03;;;1.63;;
28862;SDS011;15994;51.796;13.006;2023-05-27T11:36:24;5.95;;;1.77;;
28862;SDS011;15994;51.796;13.006;2023-05-27T11:41:23;4.65;;;1.50;;
28862;SDS011;15994;51.796;13.006;2023-05-27T11:43:57;5.28;;;1.63;;
28862;SDS011;15994;51.796;13.006;2023-05-27T11:46:34;5.47;;;2.00;;
28862;SDS011;15994;51.796;13.006;2023-05-27T11:49:07;3.78;;;1.80;;
28862;SDS011;15994;51.796;13.006;2023-05-27T11:51:39;5.97;;;1.63;;
28862;SDS011;15994;51.796;13.006;2023-05-27T11:54:07;4.80;;;1.67;;
28862;SDS011;15994;51.796;13.006;2023-05-27T11:56:40;4.13;;;1.50;;
28862;SDS011;15994;51.796;13.006;2023-05-27T11:59:07;4.03;;;1.50;;
28862;SDS011;15994;51.796;13.006;2023-05-27T12:01:34;4.28;;;1.65;;
28862;SDS011;15994;51.796;13.006;2023-05-27T12:04:00;5.05;;;1.70;;
28862;SDS011;15994;51.796;13.006;2023-05-27T12:06:28;4.20;;;1.45;;
28862;SDS011;15994;51.796;13.006;2023-05-27T12:08:56;5.40;;;1.50;;
28862;SDS011;15994;51.796;13.006;2023-05-27T12:11:23;3.63;;;1.40;;
28862;SDS011;15994;51.796;13.006;2023-05-27T12:13:50;4.68;;;1.60;;
28862;SDS011;15994;51.796;13.006;2023-05-27T12:16:17;5.18;;;1.67;;
28862;SDS011;15994;51.796;13.006;2023-05-27T12:18:43;3.75;;;1.52;;
28862;SDS011;15994;51.796;13.006;2023-05-27T12:21:10;6.15;;;1.60;;
28862;SDS011;15994;51.796;13.006;2023-05-27T12:23:37;5.47;;;1.65;;
28862;SDS011;15994;51.796;13.006;2023-05-27T12:26:03;4.38;;;1.50;;
28862;SDS011;15994;51.796;13.006;2023-05-27T12:28:30;4.35;;;1.63;;
28862;SDS011;15994;51.796;13.006;2023-05-27T12:30:57;4.82;;;1.48;;
28862;SDS011;15994;51.796;13.006;2023-05-27T12:33:23;7.00;;;1.90;;
28862;SDS011;15994;51.796;13.006;2023-05-27T12:35:50;4.05;;;1.75;;
28862;SDS011;15994;51.796;13.006;2023-05-27T12:38:17;4.75;;;1.90;;
28862;SDS011;15994;51.796;13.006;2023-05-27T12:40:44;4.45;;;1.77;;
28862;SDS011;15994;51.796;13.006;2023-05-27T12:43:10;6.13;;;1.83;;
28862;SDS011;15994;51.796;13.006;2023-05-27T12:45:37;6.63;;;1.70;;
28862;SDS011;15994;51.796;13.006;2023-05-27T12:48:03;6.18;;;1.77;;
28862;SDS011;15994;51.796;13.006;2023-05-27T12:50:31;5.28;;;1.80;;
28862;SDS011;15994;51.796;13.006;2023-05-27T12:52:58;4.75;;;1.45;;
28862;SDS011;15994;51.796;13.006;2023-05-27T12:55:24;4.53;;;1.77;;
28862;SDS011;15994;51.796;13.006;2023-05-27T12:57:52;4.30;;;1.58;;
28862;SDS011;15994;51.796;13.006;2023-05-27T13:00:19;4.32;;;1.55;;
28862;SDS011;15994;51.796;13.006;2023-05-27T13:02:46;5.95;;;1.80;;
28862;SDS011;15994;51.796;13.006;2023-05-27T13:05:13;4.30;;;1.70;;
28862;SDS011;15994;51.796;13.006;2023-05-27T13:07:41;6.55;;;1.55;;
28862;SDS011;15994;51.796;13.006;2023-05-27T13:10:24;4.07;;;1.40;;
28862;SDS011;15994;51.796;13.006;2023-05-27T13:12:51;5.85;;;1.58;;
28862;SDS011;15994;51.796;13.006;2023-05-27T13:15:18;4.43;;;1.60;;
28862;SDS011;15994;51.796;13.006;2023-05-27T13:17:46;5.72;;;1.70;;
28862;SDS011;15994;51.796;13.006;2023-05-27T13:20:13;4.28;;;1.67;;
28862;SDS011;15994;51.796;13.006;2023-05-27T13:22:41;3.72;;;1.67;;
28862;SDS011;15994;51.796;13.006;2023-05-27T13:25:09;4.32;;;1.70;;
28862;SDS011;15994;51.796;13.006;2023-05-27T13:27:37;4.85;;;1.88;;
28862;SDS011;15994;51.796;13.006;2023-05-27T13:30:06;4.72;;;1.58;;
28862;SDS011;15994;51.796;13.006;2023-05-27T13:32:34;4.38;;;1.80;;
28862;SDS011;15994;51.796;13.006;2023-05-27T13:35:01;5.80;;;1.88;;
28862;SDS011;15994;51.796;13.006;2023-05-27T13:37:28;5.78;;;1.70;;
28862;SDS011;15994;51.796;13.006;2023-05-27T13:39:54;4.80;;;1.50;;
28862;SDS011;15994;51.796;13.006;2023-05-27T13:42:22;3.85;;;1.85;;
28862;SDS011;15994;51.796;13.006;2023-05-27T13:44:49;4.75;;;1.67;;
28862;SDS011;15994;51.796;13.006;2023-05-27T13:47:15;5.75;;;1.73;;
28862;SDS011;15994;51.796;13.006;2023-05-27T13:49:42;7.15;;;1.92;;
28862;SDS011;15994;51.796;13.006;2023-05-27T13:52:08;5.20;;;1.85;;
28862;SDS011;15994;51.796;13.006;2023-05-27T13:54:35;3.70;;;1.70;;
28862;SDS011;15994;51.796;13.006;2023-05-27T13:57:01;6.38;;;1.77;;
28862;SDS011;15994;51.796;13.006;2023-05-27T13:59:28;5.75;;;2.10;;
28862;SDS011;15994;51.796;13.006;2023-05-27T14:01:54;5.00;;;1.88;;
28862;SDS011;15994;51.796;13.006;2023-05-27T14:04:21;5.18;;;2.10;;
28862;SDS011;15994;51.796;13.006;2023-05-27T14:06:47;5.53;;;2.00;;
28862;SDS011;15994;51.796;13.006;2023-05-27T14:09:14;4.55;;;1.88;;
28862;SDS011;15994;51.796;13.006;2023-05-27T14:11:40;5.60;;;1.80;;
28862;SDS011;15994;51.796;13.006;2023-05-27T14:14:07;6.43;;;2.17;;
28862;SDS011;15994;51.796;13.006;2023-05-27T14:16:33;3.22;;;1.75;;
28862;SDS011;15994;51.796;13.006;2023-05-27T14:19:00;6.28;;;1.83;;
28862;SDS011;15994;51.796;13.006;2023-05-27T14:21:27;7.93;;;1.85;;
28862;SDS011;15994;51.796;13.006;2023-05-27T14:23:54;6.30;;;2.53;;
28862;SDS011;15994;51.796;13.006;2023-05-27T14:26:21;5.30;;;2.53;;
28862;SDS011;15994;51.796;13.006;2023-05-27T14:28:47;4.28;;;1.70;;
28862;SDS011;15994;51.796;13.006;2023-05-27T14:31:14;5.53;;;1.90;;
28862;SDS011;15994;51.796;13.006;2023-05-27T14:33:40;4.30;;;1.60;;
28862;SDS011;15994;51.796;13.006;2023-05-27T14:36:07;4.20;;;1.75;;
28862;SDS011;15994;51.796;13.006;2023-05-27T14:38:33;4.43;;;1.63;;